KLLQ

Monticello Municipal / Ellis Field Airport

Monticello, Arkansas, USA
KLLQ 191120Z 1912/2012 VRB04KT P6SM FEW050
Issued Valid From Valid To
Sep-19 @ 11:20 UTC
(2 hours ago)
Sep-19 @ 12:00 UTC
(56 minutes ago)
Sep-20 @ 12:00 UTC
(in 23 hours)
Sep-19 @ 12:00 to Sep-20 @ 12:00
KLLQ 191120Z 1912/2012 VRB04KT P6SM FEW050
Wind Visibility Clouds
Variable at 4 knots Greater than 6 miles
  • Few at 5,000' AGL
KLLQ 191120Z 1912/2012 VRB04KT P6SM FEW050
Issued Sep-19 @ 11:20 UTC
(2 hours ago)
Valid From Sep-19 @ 12:00 UTC
(56 minutes ago)
Valid To Sep-20 @ 12:00 UTC
(in 23 hours)
Sep-19 @ 12:00 - Sep-20 @ 12:00
Wind Visibility
Variable at 4 knots Greater than 6 miles
Clouds
  • Few at 5,000' AGL